createdAt,value
2023-02-11T00:01:47.050Z,31.38
2023-02-11T00:04:49.571Z,32.40
2023-02-11T00:07:52.102Z,30.67
2023-02-11T00:10:56.122Z,30.67
2023-02-11T00:14:00.414Z,27.00
2023-02-11T00:17:02.748Z,30.10
2023-02-11T00:20:08.166Z,30.43
2023-02-11T00:23:10.860Z,30.60
2023-02-11T00:26:17.712Z,27.48
2023-02-11T00:29:20.666Z,25.85
2023-02-11T00:32:23.007Z,25.30
2023-02-11T00:35:26.020Z,25.80
2023-02-11T00:38:28.254Z,25.10
2023-02-11T00:41:31.164Z,26.63
2023-02-11T00:44:34.804Z,35.50
2023-02-11T00:47:37.109Z,31.83
2023-02-11T00:50:39.444Z,29.07
2023-02-11T00:53:41.665Z,28.50
2023-02-11T00:56:43.968Z,29.88
2023-02-11T00:59:46.293Z,27.33
2023-02-11T01:02:48.721Z,27.88
2023-02-11T01:05:51.371Z,26.93
2023-02-11T01:08:53.963Z,26.65
2023-02-11T01:11:56.324Z,26.00
2023-02-11T01:14:58.967Z,21.33
2023-02-11T01:18:01.555Z,22.42
2023-02-11T01:21:04.565Z,26.60
2023-02-11T01:24:07.106Z,25.67
2023-02-11T01:27:09.458Z,29.75
2023-02-11T01:30:13.908Z,28.75
2023-02-11T01:33:16.695Z,31.20
2023-02-11T01:36:19.077Z,32.13
2023-02-11T01:39:21.479Z,33.05
2023-02-11T01:42:24.372Z,26.17
2023-02-11T01:45:45.059Z,27.60
2023-02-11T01:48:57.781Z,31.33
2023-02-11T01:52:06.124Z,32.47
2023-02-11T01:55:37.602Z,30.65
2023-02-11T01:58:41.938Z,33.78
2023-02-11T02:01:47.988Z,33.78
2023-02-11T02:05:00.281Z,28.40
2023-02-11T02:08:15.228Z,28.33
2023-02-11T02:11:17.860Z,26.50
2023-02-11T02:14:20.434Z,27.40
2023-02-11T02:17:38.425Z,23.50
2023-02-11T02:21:19.252Z,24.37
2023-02-11T02:24:40.279Z,24.13
2023-02-11T02:28:01.339Z,23.42
2023-02-11T02:31:30.891Z,25.08
2023-02-11T02:34:44.301Z,24.20
2023-02-11T02:38:07.342Z,23.23
2023-02-11T02:41:12.264Z,21.45
2023-02-11T02:44:14.575Z,23.15
2023-02-11T02:47:16.965Z,23.87
2023-02-11T02:50:25.164Z,22.43
2023-02-11T02:53:35.028Z,24.73
2023-02-11T02:56:57.802Z,22.92
2023-02-11T03:00:14.940Z,23.00
2023-02-11T03:03:34.377Z,22.80
2023-02-11T03:06:42.569Z,22.55
2023-02-11T03:10:04.364Z,24.95
2023-02-11T03:13:07.843Z,23.70
2023-02-11T03:16:14.891Z,23.13
2023-02-11T03:19:34.162Z,24.38
2023-02-11T03:22:48.716Z,23.67
2023-02-11T03:25:57.015Z,21.93
2023-02-11T03:28:59.217Z,25.43
2023-02-11T03:32:12.420Z,27.02
2023-02-11T03:35:23.971Z,24.38
2023-02-11T03:38:36.450Z,25.70
2023-02-11T03:41:41.081Z,23.57
2023-02-11T03:44:52.024Z,25.65
2023-02-11T03:48:03.504Z,23.80
2023-02-11T03:51:08.350Z,24.75
2023-02-11T03:54:14.202Z,26.27
2023-02-11T03:57:16.715Z,29.90
2023-02-11T04:00:19.410Z,27.98
2023-02-11T04:03:21.856Z,31.70
2023-02-11T04:06:24.180Z,28.33
2023-02-11T04:09:26.503Z,28.05
2023-02-11T04:12:28.812Z,28.13
2023-02-11T04:15:31.140Z,27.92
2023-02-11T04:18:33.463Z,29.17
2023-02-11T04:21:35.784Z,30.80
2023-02-11T04:24:38.109Z,28.90
2023-02-11T04:27:40.498Z,30.57
2023-02-11T04:30:42.865Z,29.77
2023-02-11T04:33:45.274Z,28.67
2023-02-11T04:36:47.605Z,30.77
2023-02-11T04:39:49.898Z,30.38
2023-02-11T04:42:52.691Z,30.20
2023-02-11T04:45:58.975Z,28.73
2023-02-11T04:49:01.418Z,32.75
2023-02-11T04:52:03.746Z,29.75
2023-02-11T04:55:06.609Z,29.77
2023-02-11T04:58:08.943Z,31.17
2023-02-11T05:01:13.940Z,32.67
2023-02-11T05:04:16.803Z,30.77
2023-02-11T05:07:19.154Z,31.77
2023-02-11T05:10:21.483Z,30.67
2023-02-11T05:13:23.998Z,32.60
2023-02-11T05:16:26.242Z,35.22
2023-02-11T05:19:28.543Z,31.67
2023-02-11T05:22:30.877Z,28.57
2023-02-11T05:25:33.297Z,28.00
2023-02-11T05:28:35.866Z,29.80
2023-02-11T05:31:38.286Z,26.77
2023-02-11T05:34:40.599Z,28.57
2023-02-11T05:37:42.943Z,29.70
2023-02-11T05:40:45.241Z,28.55
2023-02-11T05:43:51.253Z,28.10
2023-02-11T05:46:53.583Z,29.23
2023-02-11T05:49:55.866Z,28.20
2023-02-11T05:52:58.112Z,29.55
2023-02-11T05:56:00.952Z,29.08
2023-02-11T05:59:03.368Z,28.27
2023-02-11T06:02:05.743Z,28.42
2023-02-11T06:05:08.502Z,29.70
2023-02-11T06:08:11.164Z,30.40
2023-02-11T06:11:15.935Z,30.30
2023-02-11T06:14:18.271Z,29.83
2023-02-11T06:17:20.602Z,31.95
2023-02-11T06:20:22.994Z,30.88
2023-02-11T06:23:25.485Z,27.73
2023-02-11T06:26:27.818Z,29.75
2023-02-11T06:29:30.117Z,28.00
2023-02-11T06:32:49.376Z,28.10
2023-02-11T06:35:52.151Z,28.60
2023-02-11T06:38:56.535Z,28.07
2023-02-11T06:41:59.078Z,28.77
2023-02-11T06:45:01.592Z,29.90
2023-02-11T06:48:04.263Z,29.40
2023-02-11T06:51:09.662Z,30.03
2023-02-11T06:54:12.651Z,30.98
2023-02-11T06:57:16.217Z,29.85
2023-02-11T07:00:19.580Z,30.42
2023-02-11T07:03:22.287Z,30.40
2023-02-11T07:06:28.102Z,28.80
2023-02-11T07:09:32.959Z,28.05
2023-02-11T07:12:35.271Z,29.52
2023-02-11T07:15:38.355Z,29.60
2023-02-11T07:18:41.452Z,28.93
2023-02-11T07:21:43.751Z,29.07
2023-02-11T07:24:46.409Z,28.63
2023-02-11T07:27:50.268Z,29.70
2023-02-11T07:30:52.634Z,29.03
2023-02-11T07:33:58.276Z,29.33
2023-02-11T07:37:00.603Z,28.83
2023-02-11T07:40:03.324Z,30.20
2023-02-11T07:43:05.657Z,29.08
2023-02-11T07:46:11.474Z,27.50
2023-02-11T07:49:15.821Z,28.43
2023-02-11T07:52:18.736Z,27.75
2023-02-11T07:55:21.669Z,27.15
2023-02-11T07:58:23.968Z,25.00
2023-02-11T08:01:29.676Z,28.60
2023-02-11T08:04:32.172Z,26.17
2023-02-11T08:07:34.576Z,25.77
2023-02-11T08:10:37.248Z,26.20
2023-02-11T08:13:40.042Z,27.35
2023-02-11T08:16:42.487Z,26.37
2023-02-11T08:19:44.987Z,25.95
2023-02-11T08:22:47.508Z,27.05
2023-02-11T08:25:51.015Z,26.48
2023-02-11T08:28:54.884Z,27.52
2023-02-11T08:31:57.250Z,27.13
2023-02-11T08:34:59.631Z,27.38
2023-02-11T08:38:01.936Z,26.45
2023-02-11T08:41:04.887Z,26.52
2023-02-11T08:44:08.239Z,27.45
2023-02-11T08:47:10.669Z,27.47
2023-02-11T08:50:12.929Z,27.10
2023-02-11T08:53:15.254Z,27.77
2023-02-11T08:56:19.524Z,28.10
2023-02-11T08:59:21.928Z,27.92
2023-02-11T09:02:24.394Z,26.07
2023-02-11T09:05:27.679Z,24.95
2023-02-11T09:08:29.945Z,26.33
2023-02-11T09:11:35.069Z,23.60
2023-02-11T09:14:38.460Z,23.45
2023-02-11T09:17:40.993Z,22.90
2023-02-11T09:20:43.414Z,21.85
2023-02-11T09:23:48.001Z,22.35
2023-02-11T09:26:50.463Z,21.33
2023-02-11T09:29:53.262Z,22.42
2023-02-11T09:32:56.772Z,21.83
2023-02-11T09:36:03.242Z,22.90
2023-02-11T09:39:07.840Z,25.02
2023-02-11T09:42:13.614Z,24.15
2023-02-11T09:45:21.819Z,24.25
2023-02-11T09:48:24.357Z,23.20
2023-02-11T09:51:40.167Z,21.08
2023-02-11T09:54:57.680Z,21.20
2023-02-11T09:58:04.415Z,19.10
2023-02-11T10:01:13.281Z,19.45
2023-02-11T10:04:40.345Z,18.90
2023-02-11T10:08:14.622Z,17.65
2023-02-11T10:11:32.655Z,18.45
2023-02-11T10:14:48.494Z,19.60
2023-02-11T10:18:15.393Z,18.95
2023-02-11T10:21:36.701Z,20.03
2023-02-11T10:24:39.333Z,20.48
2023-02-11T10:27:42.994Z,19.25
2023-02-11T10:31:01.209Z,19.98
2023-02-11T10:34:11.248Z,20.40
2023-02-11T10:37:14.111Z,19.90
2023-02-11T10:40:25.555Z,20.65
2023-02-11T10:43:30.110Z,21.30
2023-02-11T10:46:34.240Z,19.85
2023-02-11T10:49:42.231Z,20.55
2023-02-11T10:52:44.663Z,18.73
2023-02-11T10:55:55.748Z,19.60
2023-02-11T10:59:22.155Z,20.02
2023-02-11T11:02:35.661Z,19.75
2023-02-11T11:05:53.282Z,19.48
2023-02-11T11:08:56.180Z,20.40
2023-02-11T11:11:58.673Z,20.90
2023-02-11T11:15:23.526Z,20.55
2023-02-11T11:18:25.814Z,20.95
2023-02-11T11:21:43.442Z,21.08
2023-02-11T11:24:46.878Z,19.63
2023-02-11T11:27:53.852Z,20.40
2023-02-11T11:30:57.268Z,20.75
2023-02-11T11:34:01.588Z,19.45
2023-02-11T11:37:22.467Z,20.77
2023-02-11T11:40:27.526Z,20.83
2023-02-11T11:43:29.777Z,19.63
2023-02-11T11:46:38.450Z,20.15
2023-02-11T11:49:59.585Z,20.27
2023-02-11T11:53:07.897Z,20.05
2023-02-11T11:56:25.354Z,19.07
2023-02-11T11:59:28.068Z,19.73
2023-02-11T12:03:19.428Z,17.77
2023-02-11T12:06:36.508Z,17.40
2023-02-11T12:09:49.508Z,17.23
2023-02-11T12:13:08.150Z,17.00
2023-02-11T12:16:25.711Z,17.10
2023-02-11T12:20:12.911Z,16.90
2023-02-11T12:23:40.212Z,17.13
2023-02-11T12:26:48.006Z,16.17
2023-02-11T12:30:11.982Z,16.47
2023-02-11T12:33:36.255Z,16.35
2023-02-11T12:36:45.226Z,14.90
2023-02-11T12:40:10.415Z,14.77
2023-02-11T12:43:21.404Z,13.40
2023-02-11T12:46:39.199Z,11.60
2023-02-11T12:49:45.587Z,12.60
2023-02-11T12:52:53.899Z,12.73
2023-02-11T12:56:00.969Z,12.70
2023-02-11T12:59:05.677Z,12.02
2023-02-11T13:02:43.928Z,10.87
2023-02-11T13:05:53.036Z,12.07
2023-02-11T13:09:00.854Z,12.10
2023-02-11T13:12:23.171Z,12.07
2023-02-11T13:15:26.223Z,12.13
2023-02-11T13:18:40.579Z,11.60
2023-02-11T13:22:12.187Z,10.90
2023-02-11T13:25:36.208Z,10.90
2023-02-11T13:28:44.589Z,12.02
2023-02-11T13:31:57.305Z,12.02
2023-02-11T13:34:59.820Z,10.20
2023-02-11T13:38:13.230Z,10.90
2023-02-11T13:41:18.470Z,10.05
2023-02-11T13:44:24.278Z,10.38
2023-02-11T13:47:34.126Z,9.05
2023-02-11T13:50:39.622Z,9.30
2023-02-11T13:53:54.997Z,8.13
2023-02-11T13:57:22.373Z,8.93
2023-02-11T14:00:33.680Z,7.88
2023-02-11T14:03:56.527Z,8.07
2023-02-11T14:07:42.550Z,9.47
2023-02-11T14:10:44.775Z,8.80
2023-02-11T14:13:47.033Z,9.13
2023-02-11T14:17:19.054Z,9.35
2023-02-11T14:20:37.524Z,9.55
2023-02-11T14:23:40.892Z,9.87
2023-02-11T14:26:59.449Z,9.13
2023-02-11T14:30:20.971Z,9.52
2023-02-11T14:33:38.539Z,9.75
2023-02-11T14:36:53.166Z,10.02
2023-02-11T14:40:01.101Z,9.57
2023-02-11T14:43:25.925Z,9.82
2023-02-11T14:46:33.106Z,9.52
2023-02-11T14:49:38.790Z,9.90
2023-02-11T14:52:42.456Z,9.38
2023-02-11T14:55:48.385Z,8.63
2023-02-11T14:58:54.301Z,9.48
2023-02-11T15:01:56.850Z,10.90
2023-02-11T15:05:16.701Z,9.65
2023-02-11T15:08:19.493Z,10.57
2023-02-11T15:11:24.236Z,9.57
2023-02-11T15:14:29.085Z,10.60
2023-02-11T15:17:32.888Z,10.55
2023-02-11T15:20:36.059Z,10.57
2023-02-11T15:23:40.659Z,10.10
2023-02-11T15:26:43.012Z,10.67
2023-02-11T15:29:51.225Z,10.60
2023-02-11T15:32:58.175Z,10.23
2023-02-11T15:36:00.856Z,10.23
2023-02-11T15:39:32.829Z,9.50
2023-02-11T15:42:50.608Z,10.00
2023-02-11T15:46:00.987Z,10.55
2023-02-11T15:49:03.359Z,10.18
2023-02-11T15:52:08.323Z,10.75
2023-02-11T15:55:14.333Z,10.45
2023-02-11T15:58:16.739Z,10.47
2023-02-11T16:01:19.179Z,11.15
2023-02-11T16:04:24.980Z,11.32
2023-02-11T16:07:37.787Z,10.48
2023-02-11T16:10:40.510Z,9.48
2023-02-11T16:13:47.286Z,10.10
2023-02-11T16:16:52.199Z,11.70
2023-02-11T16:19:54.850Z,11.43
2023-02-11T16:22:57.208Z,11.30
2023-02-11T16:26:05.586Z,10.90
2023-02-11T16:29:13.993Z,11.03
2023-02-11T16:32:35.026Z,10.77
2023-02-11T16:35:37.698Z,11.90
2023-02-11T16:38:40.764Z,10.75
2023-02-11T16:41:43.323Z,11.00
2023-02-11T16:44:45.597Z,10.23
2023-02-11T16:47:47.902Z,12.05
2023-02-11T16:50:53.298Z,11.35
2023-02-11T16:53:55.912Z,10.65
2023-02-11T16:56:58.701Z,11.68
2023-02-11T17:00:01.151Z,11.00
2023-02-11T17:03:07.317Z,12.00
2023-02-11T17:06:11.169Z,11.95
2023-02-11T17:09:26.279Z,11.38
2023-02-11T17:12:30.024Z,11.15
2023-02-11T17:15:32.582Z,11.03
2023-02-11T17:18:35.998Z,12.18
2023-02-11T17:21:39.015Z,12.40
2023-02-11T17:24:41.427Z,11.82
2023-02-11T17:27:44.126Z,12.00
2023-02-11T17:30:46.543Z,10.47
2023-02-11T17:33:48.935Z,11.27
2023-02-11T17:36:51.897Z,11.20
2023-02-11T17:39:54.243Z,11.30
2023-02-11T17:42:56.579Z,11.57
2023-02-11T17:45:59.288Z,11.73
2023-02-11T17:49:02.674Z,12.07
2023-02-11T17:52:05.420Z,11.23
2023-02-11T17:55:08.021Z,11.18
2023-02-11T17:58:10.366Z,10.93
2023-02-11T18:01:12.741Z,11.27
2023-02-11T18:04:18.957Z,11.18
2023-02-11T18:07:21.383Z,12.00
2023-02-11T18:10:23.762Z,11.43
2023-02-11T18:13:26.887Z,11.73
2023-02-11T18:16:30.535Z,10.77
2023-02-11T18:19:35.260Z,12.35
2023-02-11T18:22:40.275Z,13.25
2023-02-11T18:25:42.694Z,14.05
2023-02-11T18:28:46.068Z,13.25
2023-02-11T18:31:48.757Z,13.57
2023-02-11T18:34:51.104Z,13.82
2023-02-11T18:37:53.621Z,14.32
2023-02-11T18:40:57.633Z,15.25
2023-02-11T18:44:03.372Z,13.98
2023-02-11T18:47:05.943Z,14.57
2023-02-11T18:50:10.016Z,15.65
2023-02-11T18:53:13.496Z,14.20
2023-02-11T18:56:18.739Z,14.85
2023-02-11T18:59:21.201Z,14.43
2023-02-11T19:02:24.999Z,13.80
2023-02-11T19:05:28.864Z,14.75
2023-02-11T19:08:31.199Z,15.55
2023-02-11T19:11:52.368Z,14.15
2023-02-11T19:14:54.733Z,14.20
2023-02-11T19:17:57.181Z,14.07
2023-02-11T19:20:59.641Z,14.63
2023-02-11T19:24:07.481Z,15.07
2023-02-11T19:27:10.015Z,13.65
2023-02-11T19:30:12.605Z,13.73
2023-02-11T19:33:14.880Z,13.47
2023-02-11T19:36:18.628Z,13.23
2023-02-11T19:39:21.095Z,13.85
2023-02-11T19:42:25.827Z,12.55
2023-02-11T19:45:29.468Z,12.30
2023-02-11T19:48:32.005Z,12.03
2023-02-11T19:51:35.747Z,12.43
2023-02-11T19:54:38.337Z,11.00
2023-02-11T19:57:40.775Z,11.48
2023-02-11T20:00:43.579Z,11.02
2023-02-11T20:03:52.384Z,11.53
2023-02-11T20:06:54.769Z,11.63
2023-02-11T20:09:57.134Z,11.85
2023-02-11T20:12:59.490Z,11.90
2023-02-11T20:16:12.456Z,12.25
2023-02-11T20:19:18.346Z,12.13
2023-02-11T20:22:20.810Z,12.77
2023-02-11T20:25:23.247Z,12.32
2023-02-11T20:28:26.013Z,11.90
2023-02-11T20:31:29.920Z,12.38
2023-02-11T20:34:32.735Z,11.67
2023-02-11T20:37:35.157Z,12.73
2023-02-11T20:40:38.530Z,11.93
2023-02-11T20:43:42.125Z,11.82
2023-02-11T20:46:49.038Z,12.07
2023-02-11T20:49:51.572Z,11.60
2023-02-11T20:52:53.834Z,11.73
2023-02-11T20:55:56.398Z,11.95
2023-02-11T20:59:00.046Z,11.68
2023-02-11T21:02:02.488Z,11.23
2023-02-11T21:05:05.187Z,11.20
2023-02-11T21:08:07.475Z,11.65
2023-02-11T21:11:09.950Z,11.02
2023-02-11T21:14:12.915Z,11.30
2023-02-11T21:17:15.383Z,10.18
2023-02-11T21:20:17.890Z,10.77
2023-02-11T21:23:20.295Z,10.50
2023-02-11T21:26:22.762Z,9.93
2023-02-11T21:29:25.080Z,9.93
2023-02-11T21:32:27.518Z,10.50
2023-02-11T21:35:35.099Z,11.43
2023-02-11T21:38:37.439Z,10.70
2023-02-11T21:41:40.443Z,10.45
2023-02-11T21:44:42.807Z,12.10
2023-02-11T21:47:45.097Z,11.00
2023-02-11T21:50:47.782Z,10.17
2023-02-11T21:53:54.898Z,9.98
2023-02-11T21:56:57.429Z,11.02
2023-02-11T21:59:59.808Z,10.25
2023-02-11T22:03:02.135Z,10.98
2023-02-11T22:06:12.659Z,11.00
2023-02-11T22:09:15.016Z,10.93
2023-02-11T22:12:17.341Z,11.75
2023-02-11T22:15:20.036Z,10.30
2023-02-11T22:18:22.369Z,10.13
2023-02-11T22:21:25.139Z,10.23
2023-02-11T22:24:27.848Z,10.63
2023-02-11T22:27:30.226Z,11.30
2023-02-11T22:30:32.533Z,10.57
2023-02-11T22:33:34.851Z,10.10
2023-02-11T22:36:39.501Z,10.33
2023-02-11T22:39:42.774Z,10.13
2023-02-11T22:42:45.098Z,11.25
2023-02-11T22:45:48.268Z,9.93
2023-02-11T22:48:50.903Z,11.50
2023-02-11T22:51:53.189Z,10.07
2023-02-11T22:54:55.495Z,10.32
2023-02-11T22:57:57.788Z,10.02
2023-02-11T23:01:00.155Z,10.93
2023-02-11T23:04:05.121Z,10.15
2023-02-11T23:07:07.424Z,10.07
2023-02-11T23:10:10.494Z,10.90
2023-02-11T23:13:12.831Z,9.82
2023-02-11T23:16:20.998Z,10.32
2023-02-11T23:19:23.913Z,10.27
2023-02-11T23:22:26.190Z,9.73
2023-02-11T23:25:28.598Z,10.27
2023-02-11T23:28:31.050Z,10.10
2023-02-11T23:31:37.961Z,10.90
2023-02-11T23:34:40.414Z,11.05
2023-02-11T23:37:42.732Z,10.40
2023-02-11T23:40:45.085Z,10.98
2023-02-11T23:43:52.054Z,10.02
2023-02-11T23:46:54.376Z,9.20
2023-02-11T23:49:59.388Z,11.02
2023-02-11T23:53:02.043Z,10.30
2023-02-11T23:56:14.019Z,9.75
2023-02-11T23:59:17.190Z,9.93
